createdAt,value
2023-04-26T00:00:00.524Z,8.68
2023-04-26T00:02:27.910Z,8.66
2023-04-26T00:04:59.069Z,8.59
2023-04-26T00:07:25.673Z,8.62
2023-04-26T00:09:55.158Z,8.67
2023-04-26T00:12:22.064Z,8.76
2023-04-26T00:14:50.884Z,9.03
2023-04-26T00:17:17.487Z,8.69
2023-04-26T00:19:43.884Z,8.44
2023-04-26T00:22:10.956Z,8.22
2023-04-26T00:24:37.761Z,8.55
2023-04-26T00:27:09.149Z,8.52
2023-04-26T00:29:35.687Z,8.39
2023-04-26T00:32:02.229Z,8.52
2023-04-26T00:34:28.645Z,8.55
2023-04-26T00:36:55.193Z,8.50
2023-04-26T00:39:22.428Z,8.21
2023-04-26T00:41:48.782Z,8.16
2023-04-26T00:44:17.239Z,8.12
2023-04-26T00:46:43.604Z,8.17
2023-04-26T00:49:12.542Z,8.24
2023-04-26T00:51:38.936Z,8.22
2023-04-26T00:54:05.458Z,8.30
2023-04-26T00:56:32.054Z,8.46
2023-04-26T00:58:59.006Z,8.61
2023-04-26T01:01:25.440Z,8.76
2023-04-26T01:03:51.978Z,8.43
2023-04-26T01:06:18.452Z,8.31
2023-04-26T01:08:44.829Z,8.25
2023-04-26T01:11:11.213Z,8.10
2023-04-26T01:13:37.633Z,8.12
2023-04-26T01:16:05.053Z,8.05
2023-04-26T01:18:31.441Z,8.35
2023-04-26T01:20:57.899Z,7.98
2023-04-26T01:23:27.945Z,8.17
2023-04-26T01:25:56.231Z,8.25
2023-04-26T01:28:23.111Z,8.13
2023-04-26T01:30:49.491Z,8.02
2023-04-26T01:33:16.035Z,8.27
2023-04-26T01:35:44.029Z,8.21
2023-04-26T01:38:10.990Z,8.38
2023-04-26T01:40:37.474Z,8.22
2023-04-26T01:43:05.694Z,8.26
2023-04-26T01:45:32.086Z,8.21
2023-04-26T01:48:16.761Z,8.08
2023-04-26T01:50:43.171Z,7.96
2023-04-26T01:53:09.552Z,7.90
2023-04-26T01:55:35.910Z,7.88
2023-04-26T01:58:02.278Z,7.71
2023-04-26T02:00:28.805Z,7.54
2023-04-26T02:02:55.522Z,7.31
2023-04-26T02:05:22.818Z,7.12
2023-04-26T02:07:49.225Z,7.17
2023-04-26T02:10:15.585Z,7.36
2023-04-26T02:12:42.138Z,7.31
2023-04-26T02:15:08.520Z,7.10
2023-04-26T02:17:34.916Z,7.15
2023-04-26T02:20:01.378Z,7.32
2023-04-26T02:22:27.854Z,7.22
2023-04-26T02:24:54.238Z,7.01
2023-04-26T02:27:27.718Z,7.00
2023-04-26T02:29:54.346Z,6.91
2023-04-26T02:32:20.749Z,6.84
2023-04-26T02:34:47.145Z,6.91
2023-04-26T02:37:13.862Z,6.91
2023-04-26T02:39:40.269Z,7.02
2023-04-26T02:42:06.617Z,7.06
2023-04-26T02:44:33.051Z,7.13
2023-04-26T02:46:59.495Z,7.01
2023-04-26T02:49:26.040Z,6.67
2023-04-26T02:51:52.964Z,6.35
2023-04-26T02:54:19.755Z,6.12
2023-04-26T02:56:46.549Z,6.89
2023-04-26T02:59:12.915Z,7.24
2023-04-26T03:01:39.492Z,7.42
2023-04-26T03:04:06.132Z,7.03
2023-04-26T03:06:34.157Z,6.90
2023-04-26T03:09:00.998Z,6.60
2023-04-26T03:11:27.609Z,6.82
2023-04-26T03:13:54.007Z,6.96
2023-04-26T03:16:23.835Z,6.92
2023-04-26T03:18:50.576Z,7.08
2023-04-26T03:21:17.212Z,7.20
2023-04-26T03:23:45.125Z,7.22
2023-04-26T03:26:11.487Z,7.03
2023-04-26T03:28:37.877Z,6.98
2023-04-26T03:31:04.302Z,6.93
2023-04-26T03:33:31.585Z,6.64
2023-04-26T03:35:58.001Z,7.16
2023-04-26T03:38:24.951Z,6.72
2023-04-26T03:40:51.681Z,7.19
2023-04-26T03:43:18.071Z,6.73
2023-04-26T03:45:44.513Z,6.68
2023-04-26T03:48:11.543Z,6.75
2023-04-26T03:50:39.500Z,7.02
2023-04-26T03:53:05.929Z,6.96
2023-04-26T03:55:32.526Z,6.90
2023-04-26T03:57:59.335Z,6.76
2023-04-26T04:00:26.715Z,6.85
2023-04-26T04:02:53.362Z,6.55
2023-04-26T04:05:24.292Z,6.65
2023-04-26T04:07:50.828Z,6.63
2023-04-26T04:10:17.278Z,6.79
2023-04-26T04:12:44.769Z,6.57
2023-04-26T04:15:11.204Z,6.40
2023-04-26T04:17:43.162Z,6.79
2023-04-26T04:20:10.895Z,6.86
2023-04-26T04:22:39.641Z,7.14
2023-04-26T04:25:06.101Z,6.91
2023-04-26T04:27:32.574Z,7.26
2023-04-26T04:29:59.065Z,7.13
2023-04-26T04:32:26.402Z,7.10
2023-04-26T04:34:53.881Z,6.61
2023-04-26T04:37:21.256Z,6.48
2023-04-26T04:39:47.653Z,6.73
2023-04-26T04:42:15.252Z,6.90
2023-04-26T04:44:42.052Z,6.91
2023-04-26T04:47:08.566Z,6.78
2023-04-26T04:49:37.317Z,6.96
2023-04-26T04:52:03.669Z,7.21
2023-04-26T04:54:30.128Z,6.95
2023-04-26T04:56:57.786Z,7.29
2023-04-26T04:59:24.262Z,7.16
2023-04-26T05:01:50.934Z,7.62
2023-04-26T05:04:18.654Z,7.50
2023-04-26T05:06:45.186Z,7.74
2023-04-26T05:09:11.608Z,7.69
2023-04-26T05:11:38.247Z,7.77
2023-04-26T05:14:06.649Z,8.02
2023-04-26T05:16:33.173Z,7.96
2023-04-26T05:19:01.986Z,7.93
2023-04-26T05:21:28.824Z,8.00
2023-04-26T05:23:55.585Z,8.13
2023-04-26T05:26:22.123Z,7.31
2023-04-26T05:28:51.125Z,7.38
2023-04-26T05:31:29.094Z,7.25
2023-04-26T05:34:15.840Z,7.58
2023-04-26T05:36:45.604Z,7.70
2023-04-26T05:39:12.485Z,7.92
2023-04-26T05:41:38.871Z,8.37
2023-04-26T05:44:05.487Z,8.04
2023-04-26T05:46:31.869Z,8.51
2023-04-26T05:48:58.308Z,8.80
2023-04-26T05:51:24.716Z,8.60
2023-04-26T05:53:51.656Z,8.78
2023-04-26T05:56:18.584Z,9.00
2023-04-26T05:58:45.047Z,9.00
2023-04-26T06:01:12.418Z,8.73
2023-04-26T06:03:39.180Z,9.20
2023-04-26T06:06:05.859Z,9.05
2023-04-26T06:08:32.286Z,8.40
2023-04-26T06:10:58.685Z,8.89
2023-04-26T06:13:26.811Z,9.05
2023-04-26T06:15:53.580Z,9.49
2023-04-26T06:18:21.031Z,9.89
2023-04-26T06:20:47.524Z,9.61
2023-04-26T06:23:14.798Z,10.08
2023-04-26T06:25:44.768Z,10.00
2023-04-26T06:28:11.833Z,10.15
2023-04-26T06:30:38.350Z,9.64
2023-04-26T06:33:05.076Z,10.20
2023-04-26T06:35:32.876Z,10.03
2023-04-26T06:37:59.524Z,10.11
2023-04-26T06:40:26.625Z,10.34
2023-04-26T06:42:54.370Z,10.17
2023-04-26T06:45:36.984Z,10.58
2023-04-26T06:48:04.865Z,11.20
2023-04-26T06:50:32.381Z,10.53
2023-04-26T06:52:58.823Z,10.60
2023-04-26T06:55:25.283Z,10.95
2023-04-26T06:57:51.733Z,10.96
2023-04-26T07:00:18.328Z,11.13
2023-04-26T07:02:44.891Z,11.04
2023-04-26T07:05:11.476Z,11.10
2023-04-26T07:07:37.997Z,11.03
2023-04-26T07:10:04.375Z,10.90
2023-04-26T07:12:31.278Z,11.23
2023-04-26T07:14:58.063Z,11.15
2023-04-26T07:17:24.503Z,11.10
2023-04-26T07:19:50.863Z,11.24
2023-04-26T07:22:17.246Z,10.61
2023-04-26T07:24:43.604Z,11.17
2023-04-26T07:27:10.375Z,10.75
2023-04-26T07:29:36.800Z,11.15
2023-04-26T07:32:03.954Z,11.23
2023-04-26T07:34:30.341Z,11.20
2023-04-26T07:36:56.709Z,11.26
2023-04-26T07:39:23.527Z,10.80
2023-04-26T07:41:50.060Z,11.32
2023-04-26T07:44:16.436Z,11.18
2023-04-26T07:46:43.057Z,11.11
2023-04-26T07:49:09.687Z,10.86
2023-04-26T07:51:36.420Z,11.38
2023-04-26T07:54:02.816Z,11.47
2023-04-26T07:56:29.257Z,11.33
2023-04-26T07:58:56.343Z,11.10
2023-04-26T08:01:22.749Z,11.42
2023-04-26T08:03:49.495Z,11.59
2023-04-26T08:06:16.723Z,11.48
2023-04-26T08:08:44.862Z,12.15
2023-04-26T08:11:11.652Z,12.13
2023-04-26T08:13:38.095Z,11.84
2023-04-26T08:16:04.453Z,12.60
2023-04-26T08:18:30.818Z,12.16
2023-04-26T08:20:57.398Z,11.96
2023-04-26T08:23:23.798Z,11.71
2023-04-26T08:25:50.150Z,11.25
2023-04-26T08:28:16.515Z,11.80
2023-04-26T08:30:43.152Z,12.02
2023-04-26T08:33:09.586Z,11.74
2023-04-26T08:35:36.014Z,12.28
2023-04-26T08:38:02.413Z,11.95
2023-04-26T08:40:28.868Z,12.12
2023-04-26T08:42:55.296Z,11.93
2023-04-26T08:45:21.737Z,11.96
2023-04-26T08:47:48.202Z,12.23
2023-04-26T08:50:14.970Z,12.09
2023-04-26T08:52:41.391Z,11.65
2023-04-26T08:55:07.732Z,12.08
2023-04-26T08:57:34.181Z,12.21
2023-04-26T09:00:01.461Z,12.42
2023-04-26T09:02:27.961Z,13.61
2023-04-26T09:04:55.389Z,13.39
2023-04-26T09:07:22.122Z,12.25
2023-04-26T09:09:48.485Z,11.36
2023-04-26T09:12:14.871Z,12.19
2023-04-26T09:14:42.354Z,11.83
2023-04-26T09:17:08.747Z,12.30
2023-04-26T09:19:35.759Z,13.01
2023-04-26T09:22:02.324Z,12.21
2023-04-26T09:24:28.742Z,12.30
2023-04-26T09:26:55.109Z,12.10
2023-04-26T09:29:21.564Z,12.02
2023-04-26T09:31:49.733Z,12.33
2023-04-26T09:34:16.545Z,12.35
2023-04-26T09:36:42.953Z,13.13
2023-04-26T09:39:10.293Z,12.65
2023-04-26T09:41:36.644Z,11.87
2023-04-26T09:44:03.131Z,12.95
2023-04-26T09:46:29.584Z,12.88
2023-04-26T09:48:56.059Z,12.34
2023-04-26T09:51:22.454Z,12.60
2023-04-26T09:53:49.920Z,11.94
2023-04-26T09:56:18.901Z,12.95
2023-04-26T09:58:45.378Z,13.01
2023-04-26T10:01:12.139Z,11.97
2023-04-26T10:03:38.772Z,12.26
2023-04-26T10:06:05.726Z,12.17
2023-04-26T10:08:32.951Z,12.03
2023-04-26T10:10:59.302Z,12.41
2023-04-26T10:13:25.957Z,12.42
2023-04-26T10:15:52.454Z,12.88
2023-04-26T10:18:18.956Z,12.66
2023-04-26T10:20:45.446Z,12.91
2023-04-26T10:23:12.120Z,13.09
2023-04-26T10:25:38.558Z,12.74
2023-04-26T10:28:04.969Z,13.33
2023-04-26T10:30:32.224Z,13.69
2023-04-26T10:32:58.660Z,13.62
2023-04-26T10:35:26.093Z,13.77
2023-04-26T10:37:52.470Z,13.75
2023-04-26T10:40:18.827Z,13.27
2023-04-26T10:42:45.294Z,13.10
2023-04-26T10:45:11.822Z,12.91
2023-04-26T10:47:38.753Z,12.73
2023-04-26T10:50:06.147Z,12.62
2023-04-26T10:52:32.833Z,12.76
2023-04-26T10:54:59.268Z,13.23
2023-04-26T10:57:25.659Z,13.17
2023-04-26T10:59:54.868Z,12.80
2023-04-26T11:02:21.442Z,13.38
2023-04-26T11:04:47.798Z,13.29
2023-04-26T11:07:14.203Z,13.33
2023-04-26T11:09:40.787Z,13.24
2023-04-26T11:12:07.692Z,13.19
2023-04-26T11:14:35.032Z,13.34
2023-04-26T11:17:01.397Z,12.96
2023-04-26T11:19:27.737Z,12.99
2023-04-26T11:21:55.224Z,13.13
2023-04-26T11:24:22.567Z,12.50
2023-04-26T11:26:48.935Z,12.71
2023-04-26T11:29:15.666Z,13.22
2023-04-26T11:31:42.097Z,13.06
2023-04-26T11:34:08.679Z,12.75
2023-04-26T11:36:35.014Z,12.72
2023-04-26T11:39:02.573Z,13.09
2023-04-26T11:41:29.004Z,12.52
2023-04-26T11:43:55.474Z,12.93
2023-04-26T11:46:22.430Z,13.12
2023-04-26T11:48:48.850Z,13.23
2023-04-26T11:51:15.241Z,13.12
2023-04-26T11:53:41.970Z,13.18
2023-04-26T11:56:08.508Z,13.29
2023-04-26T11:58:34.896Z,13.22
2023-04-26T12:01:04.432Z,13.13
2023-04-26T12:03:35.446Z,13.07
2023-04-26T12:06:02.429Z,13.01
2023-04-26T12:08:28.975Z,13.16
2023-04-26T12:10:55.534Z,13.08
2023-04-26T12:13:21.945Z,13.47
2023-04-26T12:15:50.454Z,13.70
2023-04-26T12:18:17.462Z,12.77
2023-04-26T12:20:46.606Z,13.28
2023-04-26T12:23:13.194Z,13.19
2023-04-26T12:25:39.641Z,13.18
2023-04-26T12:28:06.417Z,13.47
2023-04-26T12:30:32.836Z,13.80
2023-04-26T12:33:15.538Z,13.97
2023-04-26T12:35:43.903Z,14.07
2023-04-26T12:38:10.723Z,15.00
2023-04-26T12:40:37.387Z,15.36
2023-04-26T12:43:04.013Z,14.05
2023-04-26T12:45:30.526Z,13.80
2023-04-26T12:47:57.094Z,13.43
2023-04-26T12:50:23.629Z,13.67
2023-04-26T12:52:50.369Z,13.53
2023-04-26T12:55:16.725Z,13.82
2023-04-26T12:57:43.183Z,13.95
2023-04-26T13:00:09.664Z,13.66
2023-04-26T13:02:36.330Z,13.93
2023-04-26T13:05:04.840Z,13.62
2023-04-26T13:07:31.767Z,13.77
2023-04-26T13:09:58.326Z,13.62
2023-04-26T13:12:24.740Z,13.40
2023-04-26T13:14:51.115Z,12.90
2023-04-26T13:17:17.676Z,13.25
2023-04-26T13:19:44.033Z,13.67
2023-04-26T13:22:10.634Z,13.85
2023-04-26T13:24:37.055Z,14.38
2023-04-26T13:27:03.652Z,14.40
2023-04-26T13:29:30.085Z,14.07
2023-04-26T13:31:56.541Z,14.12
2023-04-26T13:34:23.623Z,13.64
2023-04-26T13:36:50.446Z,14.64
2023-04-26T13:39:16.808Z,14.12
2023-04-26T13:41:43.224Z,13.88
2023-04-26T13:44:09.659Z,13.88
2023-04-26T13:46:36.350Z,14.21
2023-04-26T13:49:02.907Z,14.36
2023-04-26T13:51:30.698Z,14.86
2023-04-26T13:53:57.139Z,14.64
2023-04-26T13:56:25.641Z,14.98
2023-04-26T13:58:52.621Z,14.96
2023-04-26T14:01:19.056Z,14.50
2023-04-26T14:03:45.633Z,14.18
2023-04-26T14:06:12.223Z,14.51
2023-04-26T14:08:38.621Z,14.13
2023-04-26T14:11:05.052Z,13.42
2023-04-26T14:13:31.555Z,13.10
2023-04-26T14:15:58.020Z,13.73
2023-04-26T14:18:24.475Z,13.43
2023-04-26T14:20:50.947Z,13.34
2023-04-26T14:23:17.330Z,13.56
2023-04-26T14:25:43.721Z,14.08
2023-04-26T14:28:11.891Z,14.12
2023-04-26T14:30:38.256Z,13.95
2023-04-26T14:33:04.706Z,13.68
2023-04-26T14:35:31.131Z,13.76
2023-04-26T14:37:57.513Z,14.72
2023-04-26T14:40:23.892Z,14.69
2023-04-26T14:42:50.252Z,14.47
2023-04-26T14:45:16.809Z,14.46
2023-04-26T14:47:43.190Z,14.60
2023-04-26T14:50:10.413Z,14.15
2023-04-26T14:52:36.788Z,14.89
2023-04-26T14:55:03.145Z,14.59
2023-04-26T14:57:29.876Z,14.14
2023-04-26T14:59:56.392Z,13.52
2023-04-26T15:02:22.831Z,13.53
2023-04-26T15:04:49.469Z,13.88
2023-04-26T15:07:30.812Z,14.10
2023-04-26T15:09:58.931Z,14.28
2023-04-26T15:12:25.361Z,15.09
2023-04-26T15:14:51.708Z,14.90
2023-04-26T15:17:18.105Z,15.07
2023-04-26T15:19:44.660Z,14.21
2023-04-26T15:22:11.893Z,14.18
2023-04-26T15:24:38.553Z,13.99
2023-04-26T15:27:05.072Z,13.87
2023-04-26T15:29:31.763Z,13.76
2023-04-26T15:31:58.547Z,14.52
2023-04-26T15:34:26.742Z,14.33
2023-04-26T15:36:53.491Z,14.41
2023-04-26T15:39:19.880Z,14.19
2023-04-26T15:41:46.307Z,14.29
2023-04-26T15:44:12.730Z,13.98
2023-04-26T15:46:39.395Z,13.66
2023-04-26T15:49:05.981Z,13.81
2023-04-26T15:51:32.594Z,13.85
2023-04-26T15:53:58.991Z,14.65
2023-04-26T15:56:26.622Z,14.24
2023-04-26T15:58:53.112Z,13.85
2023-04-26T16:01:19.748Z,14.38
2023-04-26T16:03:47.730Z,14.32
2023-04-26T16:06:14.500Z,14.25
2023-04-26T16:08:41.257Z,14.07
2023-04-26T16:11:07.689Z,13.90
2023-04-26T16:13:34.248Z,13.69
2023-04-26T16:16:00.760Z,13.98
2023-04-26T16:18:27.302Z,13.86
2023-04-26T16:20:53.770Z,14.33
2023-04-26T16:23:21.659Z,14.48
2023-04-26T16:25:48.007Z,14.52
2023-04-26T16:28:14.396Z,13.91
2023-04-26T16:30:41.520Z,13.85
2023-04-26T16:33:10.076Z,13.88
2023-04-26T16:35:36.784Z,13.68
2023-04-26T16:38:03.145Z,13.80
2023-04-26T16:40:29.864Z,13.64
2023-04-26T16:42:56.214Z,13.60
2023-04-26T16:45:22.565Z,13.53
2023-04-26T16:47:48.925Z,13.60
2023-04-26T16:50:15.318Z,14.08
2023-04-26T16:52:41.770Z,13.48
2023-04-26T16:55:08.623Z,13.42
2023-04-26T16:57:35.037Z,13.63
2023-04-26T17:00:01.849Z,13.21
2023-04-26T17:02:28.534Z,12.90
2023-04-26T17:04:55.334Z,13.05
2023-04-26T17:07:22.181Z,13.18
2023-04-26T17:09:48.707Z,13.42
2023-04-26T17:12:15.071Z,12.98
2023-04-26T17:14:42.016Z,13.05
2023-04-26T17:17:08.428Z,13.30
2023-04-26T17:19:34.802Z,13.46
2023-04-26T17:22:01.383Z,13.12
2023-04-26T17:24:27.769Z,13.56
2023-04-26T17:26:54.144Z,13.40
2023-04-26T17:29:20.501Z,13.31
2023-04-26T17:31:47.176Z,13.16
2023-04-26T17:34:17.965Z,13.37
2023-04-26T17:36:46.069Z,13.36
2023-04-26T17:39:12.433Z,13.37
2023-04-26T17:41:39.108Z,13.22
2023-04-26T17:44:05.907Z,13.61
2023-04-26T17:46:32.370Z,13.49
2023-04-26T17:48:59.915Z,13.00
2023-04-26T17:51:26.366Z,12.68
2023-04-26T17:53:52.801Z,13.08
2023-04-26T17:56:19.317Z,13.04
2023-04-26T17:58:45.874Z,12.37
2023-04-26T18:01:12.322Z,12.68
2023-04-26T18:03:39.096Z,12.60
2023-04-26T18:06:05.740Z,12.58
2023-04-26T18:08:32.112Z,12.60
2023-04-26T18:10:58.528Z,12.66
2023-04-26T18:13:24.905Z,12.85
2023-04-26T18:15:51.465Z,12.65
2023-04-26T18:18:17.972Z,12.61
2023-04-26T18:20:44.435Z,12.46
2023-04-26T18:23:11.073Z,12.32
2023-04-26T18:25:37.415Z,12.46
2023-04-26T18:28:03.822Z,12.00
2023-04-26T18:30:30.406Z,12.27
2023-04-26T18:32:56.963Z,12.37
2023-04-26T18:35:23.365Z,12.25
2023-04-26T18:37:49.753Z,12.47
2023-04-26T18:40:16.261Z,12.73
2023-04-26T18:42:45.030Z,12.52
2023-04-26T18:45:11.571Z,12.27
2023-04-26T18:47:38.473Z,12.19
2023-04-26T18:50:04.951Z,12.09
2023-04-26T18:52:31.481Z,12.46
2023-04-26T18:54:58.004Z,12.35
2023-04-26T18:57:24.489Z,12.31
2023-04-26T18:59:51.101Z,12.00
2023-04-26T19:02:17.760Z,12.03
2023-04-26T19:04:44.621Z,12.06
2023-04-26T19:07:11.743Z,12.08
2023-04-26T19:09:50.466Z,12.04
2023-04-26T19:12:19.954Z,11.50
2023-04-26T19:14:46.440Z,12.06
2023-04-26T19:17:13.115Z,11.95
2023-04-26T19:19:39.505Z,11.90
2023-04-26T19:22:05.999Z,12.03
2023-04-26T19:24:32.621Z,12.00
2023-04-26T19:26:59.101Z,11.89
2023-04-26T19:29:25.546Z,11.86
2023-04-26T19:31:52.139Z,11.60
2023-04-26T19:34:19.363Z,11.51
2023-04-26T19:36:46.174Z,11.83
2023-04-26T19:39:12.640Z,12.08
2023-04-26T19:41:39.221Z,11.95
2023-04-26T19:44:05.909Z,11.92
2023-04-26T19:46:32.779Z,11.75
2023-04-26T19:48:59.339Z,12.21
2023-04-26T19:51:25.805Z,12.28
2023-04-26T19:53:52.136Z,11.72
2023-04-26T19:56:18.499Z,11.92
2023-04-26T19:58:44.906Z,11.77
2023-04-26T20:01:11.747Z,12.28
2023-04-26T20:03:39.285Z,11.95
2023-04-26T20:06:06.131Z,12.35
2023-04-26T20:08:32.660Z,12.11
2023-04-26T20:10:59.628Z,11.93
2023-04-26T20:13:26.303Z,11.90
2023-04-26T20:15:52.937Z,11.96
2023-04-26T20:18:19.405Z,12.00
2023-04-26T20:20:47.668Z,11.88
2023-04-26T20:23:14.104Z,12.13
2023-04-26T20:25:41.705Z,11.97
2023-04-26T20:28:08.424Z,11.67
2023-04-26T20:30:34.870Z,11.75
2023-04-26T20:33:01.381Z,12.04
2023-04-26T20:35:27.847Z,11.70
2023-04-26T20:37:54.188Z,11.88
2023-04-26T20:40:20.543Z,11.57
2023-04-26T20:42:47.516Z,11.52
2023-04-26T20:45:14.051Z,11.65
2023-04-26T20:47:40.603Z,11.71
2023-04-26T20:50:07.417Z,11.58
2023-04-26T20:52:33.853Z,11.49
2023-04-26T20:55:00.471Z,11.41
2023-04-26T20:57:26.929Z,11.74
2023-04-26T20:59:53.315Z,11.70
2023-04-26T21:02:19.752Z,11.37
2023-04-26T21:04:46.321Z,11.64
2023-04-26T21:07:12.854Z,11.60
2023-04-26T21:09:39.198Z,11.63
2023-04-26T21:12:05.833Z,11.50
2023-04-26T21:14:32.232Z,11.62
2023-04-26T21:16:58.709Z,11.45
2023-04-26T21:19:25.598Z,11.73
2023-04-26T21:21:52.022Z,11.94
2023-04-26T21:24:18.434Z,11.57
2023-04-26T21:26:45.171Z,11.54
2023-04-26T21:29:12.681Z,11.42
2023-04-26T21:31:39.102Z,11.18
2023-04-26T21:34:05.504Z,11.10
2023-04-26T21:36:32.444Z,11.33
2023-04-26T21:38:59.107Z,11.08
2023-04-26T21:41:26.022Z,10.84
2023-04-26T21:43:53.105Z,10.88
2023-04-26T21:46:19.484Z,10.99
2023-04-26T21:48:46.137Z,11.04
2023-04-26T21:51:12.909Z,10.95
2023-04-26T21:53:39.257Z,10.75
2023-04-26T21:56:06.529Z,10.60
2023-04-26T21:58:33.320Z,10.62
2023-04-26T22:00:59.754Z,10.68
2023-04-26T22:03:26.316Z,10.88
2023-04-26T22:05:52.859Z,10.65
2023-04-26T22:08:19.245Z,11.14
2023-04-26T22:10:46.118Z,10.66
2023-04-26T22:13:12.854Z,10.81
2023-04-26T22:15:39.229Z,10.41
2023-04-26T22:18:05.644Z,10.62
2023-04-26T22:20:32.132Z,10.74
2023-04-26T22:22:58.490Z,10.64
2023-04-26T22:25:25.255Z,10.75
2023-04-26T22:27:51.803Z,10.82
2023-04-26T22:30:25.600Z,10.54
2023-04-26T22:32:54.481Z,10.58
2023-04-26T22:35:21.640Z,10.42
2023-04-26T22:37:48.367Z,10.53
2023-04-26T22:40:14.833Z,10.41
2023-04-26T22:42:41.652Z,10.43
2023-04-26T22:45:08.239Z,10.32
2023-04-26T22:47:34.676Z,10.44
2023-04-26T22:50:01.172Z,10.68
2023-04-26T22:52:31.541Z,10.43
2023-04-26T22:54:59.708Z,10.50
2023-04-26T22:57:26.289Z,10.28
2023-04-26T22:59:52.671Z,10.22
2023-04-26T23:02:19.703Z,10.29
2023-04-26T23:04:46.212Z,10.03
2023-04-26T23:07:12.592Z,9.87
2023-04-26T23:09:39.007Z,9.88
2023-04-26T23:12:05.611Z,9.81
2023-04-26T23:14:32.094Z,9.78
2023-04-26T23:17:02.721Z,9.69
2023-04-26T23:19:29.359Z,9.77
2023-04-26T23:21:55.772Z,9.76
2023-04-26T23:24:22.149Z,10.01
2023-04-26T23:26:48.542Z,9.93
2023-04-26T23:29:15.205Z,9.96
2023-04-26T23:31:41.873Z,10.05
2023-04-26T23:34:08.351Z,9.99
2023-04-26T23:36:34.727Z,9.99
2023-04-26T23:39:01.097Z,9.81
2023-04-26T23:41:32.181Z,9.87
2023-04-26T23:43:58.817Z,9.89
2023-04-26T23:46:25.325Z,9.85
2023-04-26T23:48:51.896Z,9.66
2023-04-26T23:51:18.345Z,9.64
2023-04-26T23:53:45.009Z,9.49
2023-04-26T23:56:11.457Z,9.54
2023-04-26T23:58:37.900Z,9.56
